createdAt,value
2023-01-28T00:04:05.197Z,98477.56
2023-01-28T00:09:07.558Z,98477.56
2023-01-28T00:14:11.503Z,98473.38
2023-01-28T00:19:13.386Z,98478.22
2023-01-28T00:24:15.471Z,98467.53
2023-01-28T00:29:17.557Z,98473.72
2023-01-28T00:34:19.825Z,98476.81
2023-01-28T00:39:21.601Z,98473.09
2023-01-28T00:44:24.089Z,98466.97
2023-01-28T00:49:25.874Z,98473.81
2023-01-28T00:54:27.642Z,98478.66
2023-01-28T00:59:29.486Z,98477.66
2023-01-28T01:04:35.425Z,98479.56
2023-01-28T01:09:38.310Z,98481.66
2023-01-28T01:14:40.106Z,98488.59
2023-01-28T01:19:42.922Z,98492.16
2023-01-28T01:24:44.803Z,98496.25
2023-01-28T01:29:46.599Z,98502.19
2023-01-28T01:34:48.920Z,98498.25
2023-01-28T01:39:50.781Z,98499.72
2023-01-28T01:45:07.678Z,98495.84
2023-01-28T01:50:51.401Z,98490.75
2023-01-28T01:55:59.689Z,98492.16
2023-01-28T02:01:02.375Z,98487.59
2023-01-28T02:06:04.443Z,98481.34
2023-01-28T02:11:07.894Z,98480.34
2023-01-28T02:16:11.462Z,98495.53
2023-01-28T02:21:31.636Z,98488.94
2023-01-28T02:26:54.507Z,98490.69
2023-01-28T02:32:09.798Z,98492.69
2023-01-28T02:37:41.493Z,98497.53
2023-01-28T02:42:43.386Z,98498.91
2023-01-28T02:48:00.286Z,98505.13
2023-01-28T02:53:40.168Z,98511.06
2023-01-28T02:59:34.011Z,98507.94
2023-01-28T03:04:55.807Z,98514.13
2023-01-28T03:10:04.323Z,98517.69
2023-01-28T03:15:48.240Z,98513.41
2023-01-28T03:21:42.845Z,98516.69
2023-01-28T03:27:16.704Z,98525.44
2023-01-28T03:32:41.670Z,98529.56
2023-01-28T03:37:44.017Z,98536.88
2023-01-28T03:42:56.867Z,98534.00
2023-01-28T03:48:09.077Z,98547.59
2023-01-28T03:53:16.368Z,98544.59
2023-01-28T03:58:27.144Z,98553.06
2023-01-28T04:03:29.215Z,98554.81
2023-01-28T04:08:37.824Z,98553.22
2023-01-28T04:13:58.341Z,98561.00
2023-01-28T04:19:02.395Z,98565.28
2023-01-28T04:24:05.158Z,98559.78
2023-01-28T04:29:08.235Z,98568.94
2023-01-28T04:34:11.981Z,98575.28
2023-01-28T04:39:40.036Z,98573.75
2023-01-28T04:44:54.481Z,98576.78
2023-01-28T04:50:15.625Z,98585.09
2023-01-28T04:55:34.843Z,98589.13
2023-01-28T05:00:36.765Z,98593.56
2023-01-28T05:05:39.258Z,98599.66
2023-01-28T05:10:59.713Z,98613.00
2023-01-28T05:16:02.179Z,98613.97
2023-01-28T05:21:04.252Z,98614.72
2023-01-28T05:26:08.175Z,98613.59
2023-01-28T05:31:10.971Z,98621.63
2023-01-28T05:36:13.415Z,98627.22
2023-01-28T05:41:16.060Z,98630.22
2023-01-28T05:46:19.867Z,98634.41
2023-01-28T05:51:40.092Z,98627.22
2023-01-28T05:56:43.797Z,98641.97
2023-01-28T06:01:45.627Z,98634.72
2023-01-28T06:06:47.723Z,98645.34
2023-01-28T06:11:51.035Z,98657.28
2023-01-28T06:16:53.598Z,98662.13
2023-01-28T06:22:00.831Z,98668.75
2023-01-28T06:27:02.711Z,98669.06
2023-01-28T06:32:05.515Z,98680.31
2023-01-28T06:37:07.361Z,98684.59
2023-01-28T06:42:09.169Z,98694.50
2023-01-28T06:47:11.386Z,98699.75
2023-01-28T06:52:13.260Z,98704.47
2023-01-28T06:57:15.182Z,98711.97
2023-01-28T07:02:16.976Z,98708.19
2023-01-28T07:07:18.769Z,98716.47
2023-01-28T07:12:20.589Z,98724.31
2023-01-28T07:17:22.670Z,98722.38
2023-01-28T07:22:24.550Z,98729.06
2023-01-28T07:27:26.394Z,98732.16
2023-01-28T07:32:29.022Z,98725.56
2023-01-28T07:37:30.958Z,98728.03
2023-01-28T07:42:33.355Z,98726.31
2023-01-28T07:47:39.535Z,98730.88
2023-01-28T07:52:45.812Z,98738.91
2023-01-28T07:57:55.807Z,98743.94
2023-01-28T08:02:59.456Z,98739.88
2023-01-28T08:08:01.383Z,98737.81
2023-01-28T08:13:03.570Z,98741.59
2023-01-28T08:18:06.976Z,98750.00
2023-01-28T08:23:11.515Z,98746.78
2023-01-28T08:28:15.045Z,98748.22
2023-01-28T08:33:18.459Z,98757.16
2023-01-28T08:38:20.543Z,98769.16
2023-01-28T08:43:22.578Z,98763.47
2023-01-28T08:48:24.406Z,98777.63
2023-01-28T08:53:26.190Z,98771.53
2023-01-28T08:58:27.987Z,98785.50
2023-01-28T09:03:29.805Z,98786.09
2023-01-28T09:08:32.215Z,98797.63
2023-01-28T09:13:34.121Z,98793.41
2023-01-28T09:18:35.928Z,98793.78
2023-01-28T09:23:38.730Z,98792.41
2023-01-28T09:28:40.827Z,98794.69
2023-01-28T09:33:42.713Z,98795.97
2023-01-28T09:38:44.837Z,98803.50
2023-01-28T09:44:21.339Z,98803.66
2023-01-28T09:49:51.122Z,98802.16
2023-01-28T09:54:59.221Z,98805.06
2023-01-28T10:00:02.627Z,98800.28
2023-01-28T10:05:24.311Z,98801.84
2023-01-28T10:10:35.559Z,98800.72
2023-01-28T10:15:53.951Z,98809.38
2023-01-28T10:21:02.718Z,98802.44
2023-01-28T10:26:15.355Z,98807.56
2023-01-28T10:31:17.253Z,98804.22
2023-01-28T10:36:19.622Z,98814.50
2023-01-28T10:41:22.922Z,98815.97
2023-01-28T10:46:32.346Z,98819.84
2023-01-28T10:51:41.424Z,98822.81
2023-01-28T10:56:44.031Z,98827.66
2023-01-28T11:02:06.011Z,98828.31
2023-01-28T11:07:19.389Z,98828.28
2023-01-28T11:12:26.011Z,98837.13
2023-01-28T11:17:33.263Z,98840.34
2023-01-28T11:22:45.351Z,98827.13
2023-01-28T11:27:49.997Z,98830.00
2023-01-28T11:33:14.074Z,98823.38
2023-01-28T11:38:22.253Z,98835.09
2023-01-28T11:43:30.709Z,98813.19
2023-01-28T11:48:50.526Z,98816.78
2023-01-28T11:54:13.659Z,98823.34
2023-01-28T11:59:42.988Z,98818.06
2023-01-28T12:05:11.920Z,98819.16
2023-01-28T12:10:48.976Z,98812.59
2023-01-28T12:16:12.213Z,98804.31
2023-01-28T12:21:26.124Z,98794.09
2023-01-28T12:26:30.819Z,98795.75
2023-01-28T12:31:41.936Z,98798.41
2023-01-28T12:37:04.636Z,98789.94
2023-01-28T12:42:20.376Z,98781.41
2023-01-28T12:47:34.725Z,98783.03
2023-01-28T12:52:43.061Z,98766.50
2023-01-28T12:57:45.616Z,98774.34
2023-01-28T13:02:56.750Z,98775.44
2023-01-28T13:08:05.672Z,98775.25
2023-01-28T13:13:08.027Z,98772.97
2023-01-28T13:18:45.236Z,98787.19
2023-01-28T13:23:49.012Z,98794.66
2023-01-28T13:28:52.606Z,98795.56
2023-01-28T13:33:54.380Z,98787.75
2023-01-28T13:39:07.360Z,98790.97
2023-01-28T13:44:30.405Z,98790.78
2023-01-28T13:49:48.961Z,98801.34
2023-01-28T13:55:05.223Z,98806.94
2023-01-28T14:00:29.599Z,98806.38
2023-01-28T14:05:46.707Z,98809.97
2023-01-28T14:10:57.598Z,98819.13
2023-01-28T14:16:23.756Z,98819.72
2023-01-28T14:21:27.332Z,98829.25
2023-01-28T14:27:31.343Z,98819.19
2023-01-28T14:32:34.569Z,98830.50
2023-01-28T14:37:36.676Z,98827.16
2023-01-28T14:42:43.602Z,98831.31
2023-01-28T14:48:08.473Z,98809.41
2023-01-28T14:53:26.301Z,98816.72
2023-01-28T14:58:35.589Z,98813.75
2023-01-28T15:03:46.330Z,98816.78
2023-01-28T15:08:48.431Z,98816.19
2023-01-28T15:13:55.402Z,98810.94
2023-01-28T15:19:00.917Z,98824.88
2023-01-28T15:24:03.330Z,98831.19
2023-01-28T15:29:05.323Z,98815.00
2023-01-28T15:34:14.292Z,98821.50
2023-01-28T15:39:22.732Z,98811.66
2023-01-28T15:44:37.526Z,98804.47
2023-01-28T15:49:45.146Z,98799.53
2023-01-28T15:54:51.955Z,98793.34
2023-01-28T16:00:11.520Z,98794.00
2023-01-28T16:05:33.033Z,98779.09
2023-01-28T16:10:35.229Z,98766.56
2023-01-28T16:15:39.354Z,98775.94
2023-01-28T16:20:41.253Z,98780.44
2023-01-28T16:25:43.038Z,98792.63
2023-01-28T16:30:44.967Z,98799.03
2023-01-28T16:36:04.520Z,98801.34
2023-01-28T16:41:28.281Z,98814.91
2023-01-28T16:46:30.179Z,98815.66
2023-01-28T16:51:32.205Z,98818.78
2023-01-28T16:56:49.401Z,98801.88
2023-01-28T17:01:51.479Z,98802.91
2023-01-28T17:06:54.052Z,98815.59
2023-01-28T17:11:56.183Z,98812.09
2023-01-28T17:16:57.999Z,98820.97
2023-01-28T17:22:00.064Z,98803.00
2023-01-28T17:27:01.883Z,98829.81
2023-01-28T17:32:03.922Z,98839.63
2023-01-28T17:37:05.851Z,98861.19
2023-01-28T17:42:07.676Z,98871.84
2023-01-28T17:47:09.871Z,98886.31
2023-01-28T17:52:11.683Z,98874.19
2023-01-28T17:57:13.553Z,98866.00
2023-01-28T18:02:15.953Z,98875.16
2023-01-28T18:07:17.737Z,98861.81
2023-01-28T18:12:19.647Z,98871.22
2023-01-28T18:17:26.748Z,98852.34
2023-01-28T18:22:28.614Z,98850.22
2023-01-28T18:27:30.450Z,98870.38
2023-01-28T18:32:32.281Z,98872.22
2023-01-28T18:37:34.059Z,98874.16
2023-01-28T18:42:37.645Z,98883.94
2023-01-28T18:47:39.473Z,98881.56
2023-01-28T18:52:41.551Z,98880.81
2023-01-28T18:57:43.397Z,98892.84
2023-01-28T19:02:45.226Z,98919.44
2023-01-28T19:07:47.069Z,98940.03
2023-01-28T19:12:49.010Z,98945.97
2023-01-28T19:17:50.811Z,98945.78
2023-01-28T19:22:52.786Z,98957.56
2023-01-28T19:27:55.188Z,98946.97
2023-01-28T19:32:56.973Z,98949.94
2023-01-28T19:37:59.013Z,98949.53
2023-01-28T19:43:00.885Z,98949.41
2023-01-28T19:48:02.887Z,98945.38
2023-01-28T19:53:04.732Z,98930.44
2023-01-28T19:58:06.753Z,98930.66
2023-01-28T20:03:08.648Z,98924.03
2023-01-28T20:08:11.071Z,98912.38
2023-01-28T20:13:12.888Z,98895.16
2023-01-28T20:18:14.799Z,98889.06
2023-01-28T20:23:16.602Z,98905.97
2023-01-28T20:28:18.507Z,98906.66
2023-01-28T20:33:21.187Z,98908.84
2023-01-28T20:38:23.098Z,98903.00
2023-01-28T20:43:24.925Z,98891.91
2023-01-28T20:48:27.465Z,98891.38
2023-01-28T20:53:29.277Z,98892.66
2023-01-28T20:58:31.505Z,98892.66
2023-01-28T21:03:34.078Z,98894.03
2023-01-28T21:08:35.998Z,98894.88
2023-01-28T21:13:38.595Z,98894.53
2023-01-28T21:18:40.449Z,98909.22
2023-01-28T21:23:42.312Z,98904.66
2023-01-28T21:28:44.994Z,98919.88
2023-01-28T21:33:51.336Z,98937.88
2023-01-28T21:38:57.702Z,98935.78
2023-01-28T21:43:59.857Z,98929.41
2023-01-28T21:49:03.992Z,98941.25
2023-01-28T21:54:19.657Z,98941.59
2023-01-28T21:59:30.766Z,98945.66
2023-01-28T22:04:35.342Z,98938.34
2023-01-28T22:09:37.868Z,98932.84
2023-01-28T22:14:39.754Z,98920.66
2023-01-28T22:19:47.819Z,98911.31
2023-01-28T22:24:49.671Z,98913.94
2023-01-28T22:29:51.924Z,98910.09
2023-01-28T22:34:55.038Z,98906.38
2023-01-28T22:39:56.917Z,98916.91
2023-01-28T22:44:58.727Z,98915.53
2023-01-28T22:50:00.522Z,98913.28
2023-01-28T22:55:02.635Z,98898.00
2023-01-28T23:00:09.199Z,98900.66
2023-01-28T23:05:11.085Z,98885.16
2023-01-28T23:10:12.941Z,98913.13
2023-01-28T23:15:33.300Z,98917.53
2023-01-28T23:20:53.579Z,98921.78
2023-01-28T23:25:55.402Z,98919.47
2023-01-28T23:30:57.383Z,98912.63
2023-01-28T23:35:59.382Z,98903.31
2023-01-28T23:41:02.269Z,98903.44
2023-01-28T23:46:04.459Z,98905.69
2023-01-28T23:51:09.329Z,98897.56
2023-01-28T23:56:11.310Z,98897.34
